メインページ
METAR-TAF:

METAR-TAF

空港 :

ビクトリア港, ブリティッシュコロンビア州, カナダ

緯度: 48-25N, 経度: 123-20W, 海抜: 5m

現時点の気象観測

当レポートは1時間41分前の04:00(UTC)に作成
南/南西の風 3kt
気温 14°C
湿度 72%
気圧 1010 hPa
視程: 24.1km
高度12000ftの雲は散在している
高度24000ftの千切れ雲あり

METAR: CYWH 220400Z 20003KT 15SM SCT120 BKN240 14/09 A2983 RMK AC4CI3 LAST STFD OBS/NEXT 221300Z SLP104

時間: 22:41 (05:41 UTC)

予報

当レポートは6時間2分前の23:39(UTC)に作成
予報は22日の 00時(UTC)から 22日の 04時(UTC)まで有効
南西の風 8kt
視程: 10km
高度3000ftの雲はほとんどない
高度10000ftの雲は散在している

TAF: CYWH 212339Z 2200/2204 22008KT P6SM FEW030 SCT100 RMK NXT FCST WILL BE ISSUED AT 221415Z

4,000以上の空港の気象観測と天気予報(METAR報とTAF報)

利用可能な観測所は地図上に黄色い丸と赤い丸で示す。

丸の上にカーソルを重ねると観測所名を参照できる。

次にクリックすると気象観測と天気予報を参照できる。

マップの切り替え:黒色「×」印の緑ボタンをクリックして拡大、「-」印の緑ボタンをクリックして縮小、緑色の三角印をクリックして隣りの地図に切り替え


METAR-TAF: